EDGS

Siegerland Airport

Germany
TAF EDGS 231700Z 2318/2403 27009KT 9999 FEW030
Issued Valid From Valid To
Apr-23 @ 17:00 UTC
(6 hours ago)
Apr-23 @ 18:00 UTC
(5 hours ago)
Apr-24 @ 03:00 UTC
(in 4 hours)
Apr-23 @ 18:00 to Apr-24 @ 03:00
TAF EDGS 231700Z 2318/2403 27009KT 9999 FEW030
Wind Visibility Clouds
270° at 9 knots 10,000+ meters
  • Few at 3,000' AGL
TAF EDGS 231700Z 2318/2403 27009KT 9999 FEW030
Issued Apr-23 @ 17:00 UTC
(6 hours ago)
Valid From Apr-23 @ 18:00 UTC
(5 hours ago)
Valid To Apr-24 @ 03:00 UTC
(in 4 hours)
Apr-23 @ 18:00 - Apr-24 @ 03:00
Wind Visibility
270° at 9 knots 10,000+ meters
Clouds
  • Few at 3,000' AGL